Vision — WDF6306 — position and weather

sailwx.info

Track history (hours):
 
Tides and Currents Weather Stations Pressure Air Temp Water Temp Dewpoint Dewpoint Depression Visibility Wind Speed Wind Dir Waves Ship Positions

Vision

Owner: INTREPID SHIP MANAGEMENT, JACKSONVILLE, FL. More information available from US FCC via Universal Licensing System and Coast Guard Vessel Documentation Center.

Last reported at 2015-Apr-26 13:20 UTC. Time now 2015-Apr-28 14:25 UTC.
Position N 48°06' W 125°22'.

Length 199 m; draft 7.2 m.

Type: Towing. MMSI: 366904000.

Date/timePositionNaut miles runAvg speedWind from/ knotsBaromVisibWave heightAir tempDewpointWater temp
2015-Apr-26 13:20N 48°06' W 125°22'911.8
2015-Apr-26 12:33N 48°14' W 125°15'1212.0
2015-Apr-26 11:33N 48°25' W 125°07'1110.8
2015-Apr-26 10:33N 48°31' W 124°53'1312.7
2015-Apr-26 09:33N 48°28' W 124°34'1312.8
2015-Apr-26 08:33N 48°23' W 124°16'1312.5
2015-Apr-26 07:33N 48°18' W 123°59'1212.1
2015-Apr-26 06:33N 48°16' W 123°41'10 9.7
2015-Apr-26 05:33N 48°13' W 123°27'5 5.3
2015-Apr-26 04:33N 48°08' W 123°25'0 0.1
2015-Apr-26 03:32N 48°08' W 123°25'0 0.1
2015-Apr-26 02:33N 48°08' W 123°25'0 0.1
2015-Apr-26 01:33N 48°08' W 123°25'0 0.0
2015-Apr-26 00:33N 48°08' W 123°25'0 0.0
2015-Apr-25 23:33N 48°08' W 123°25'0 0.0
2015-Apr-25 22:33N 48°08' W 123°25'0 0.0
2015-Apr-25 21:33N 48°08' W 123°25'0 0.1
2015-Apr-25 20:33N 48°08' W 123°25'0 0.2
2015-Apr-25 19:33N 48°08' W 123°25'3 2.7
2015-Apr-25 18:33N 48°09' W 123°21'1312.6
2015-Apr-25 17:33N 48°17' W 123°06'1211.8
2015-Apr-25 16:33N 48°23' W 122°52'1111.4
2015-Apr-25 15:33N 48°31' W 122°39'3 3.1
2015-Apr-25 14:33N 48°31' W 122°35'0 0.0
2015-Apr-25 13:33N 48°31' W 122°35'0 0.0
2015-Apr-25 12:33N 48°31' W 122°35'0 0.0
2015-Apr-25 11:33N 48°31' W 122°35'0 0.0
2015-Apr-25 10:33N 48°31' W 122°35'0 0.0
2015-Apr-25 09:33N 48°31' W 122°35'0 0.0
2015-Apr-25 08:33N 48°31' W 122°35'0 0.0
2015-Apr-25 07:33N 48°31' W 122°35'0 0.0
2015-Apr-25 06:33N 48°31' W 122°35'0 0.0
2015-Apr-25 05:33N 48°31' W 122°35'0 0.0
2015-Apr-25 04:33N 48°31' W 122°35'0 0.0
2015-Apr-25 03:33N 48°31' W 122°35'0 0.0
2015-Apr-25 02:33N 48°31' W 122°35'0 0.0
2015-Apr-25 01:33N 48°31' W 122°35'0 0.0
2015-Apr-25 00:33N 48°31' W 122°35'0 0.0
2015-Apr-24 23:33N 48°31' W 122°35'0 0.0
2015-Apr-24 22:33N 48°31' W 122°35'0 0.0
2015-Apr-24 21:30N 48°31' W 122°35'0 0.0
2015-Apr-24 20:33N 48°31' W 122°35'0 0.0
2015-Apr-24 19:33N 48°31' W 122°35'0 0.0
2015-Apr-24 18:33N 48°31' W 122°35'0 0.0
2015-Apr-24 17:33N 48°31' W 122°35'0 0.0
2015-Apr-24 16:33N 48°31' W 122°35'0 0.0
2015-Apr-24 15:33N 48°31' W 122°35'0 0.0
2015-Apr-24 14:33N 48°31' W 122°35'0 0.0
2015-Apr-24 13:33N 48°31' W 122°35'0 0.0
2015-Apr-24 12:33N 48°31' W 122°35'0 0.0
2015-Apr-24 11:33N 48°31' W 122°35'0 0.0
2015-Apr-24 10:30N 48°31' W 122°35'0 0.0
2015-Apr-24 09:30N 48°31' W 122°35'0 0.0
2015-Apr-24 08:21N 48°31' W 122°35'0 0.0
2015-Apr-24 07:33N 48°31' W 122°35'0 0.0
2015-Apr-24 06:33N 48°31' W 122°35'0 0.0
2015-Apr-24 05:33N 48°31' W 122°35'0 0.0
2015-Apr-24 04:33N 48°31' W 122°35'0 0.0
2015-Apr-24 03:33N 48°31' W 122°35'0 0.0
2015-Apr-24 02:33N 48°31' W 122°35'0 0.0
2015-Apr-24 01:33N 48°31' W 122°35'0 0.0
2015-Apr-24 00:33N 48°31' W 122°35'0 0.0
2015-Apr-23 23:33N 48°31' W 122°35'0 0.0
2015-Apr-23 22:33N 48°31' W 122°35'0 0.0
2015-Apr-23 21:33N 48°31' W 122°35'0 0.0
2015-Apr-23 20:33N 48°31' W 122°35'0 0.0
2015-Apr-23 19:33N 48°31' W 122°35'0 0.0
2015-Apr-23 18:33N 48°31' W 122°35'0 0.0
2015-Apr-23 17:33N 48°31' W 122°35'0 0.0
2015-Apr-23 16:33N 48°31' W 122°35'0 0.0
2015-Apr-23 15:33N 48°31' W 122°35'0 0.0
2015-Apr-23 14:33N 48°31' W 122°35'0 0.0
2015-Apr-23 13:33N 48°31' W 122°35'0 0.0
2015-Apr-23 12:33N 48°31' W 122°35'0 0.0
2015-Apr-23 11:33N 48°31' W 122°35'1 0.7
2015-Apr-23 10:33N 48°31' W 122°35'0 0.0
2015-Apr-23 09:33N 48°31' W 122°35'0 0.0
2015-Apr-23 08:33N 48°31' W 122°35'0 0.0
2015-Apr-23 07:33N 48°31' W 122°35'0 0.1
2015-Apr-23 06:33N 48°31' W 122°35'0 0.1
2015-Apr-23 05:33N 48°31' W 122°35'0 0.1
2015-Apr-23 04:33N 48°31' W 122°35'0 0.0
2015-Apr-23 03:33N 48°31' W 122°35'0 0.0
2015-Apr-23 02:33N 48°31' W 122°35'0 0.1
2015-Apr-23 01:33N 48°31' W 122°35'0 0.1
2015-Apr-23 00:33N 48°31' W 122°35'0 0.1
2015-Apr-22 23:33N 48°31' W 122°35'0 0.0
2015-Apr-22 22:33N 48°31' W 122°35'0 0.2
2015-Apr-22 21:33N 48°31' W 122°35'0 0.0
2015-Apr-22 20:33N 48°31' W 122°35'1 0.7
2015-Apr-22 19:33N 48°31' W 122°35'0 0.0
2015-Apr-22 18:33N 48°31' W 122°35'0 0.0
2015-Apr-22 17:33N 48°31' W 122°35'0 0.0
2015-Apr-22 16:33N 48°31' W 122°35'0 0.0
2015-Apr-22 15:33N 48°31' W 122°35'0 0.0
2015-Apr-22 14:33N 48°31' W 122°35'0 0.0
2015-Apr-22 13:33N 48°31' W 122°35'0 0.0
2015-Apr-22 12:33N 48°31' W 122°35'0 0.0
2015-Apr-22 11:33N 48°31' W 122°35'0 0.0
2015-Apr-22 10:33N 48°31' W 122°35'0 0.0
2015-Apr-22 09:33N 48°31' W 122°35'0 0.0
2015-Apr-22 08:34N 48°31' W 122°35'0 0.0
2015-Apr-22 07:33N 48°31' W 122°35'0 0.0
2015-Apr-22 06:33N 48°31' W 122°35'0 0.0
2015-Apr-22 05:33N 48°31' W 122°35'0 0.0
2015-Apr-22 04:33N 48°31' W 122°35'0 0.0
2015-Apr-22 03:33N 48°31' W 122°35'0 0.0
2015-Apr-22 02:32N 48°31' W 122°35'0 0.0
2015-Apr-22 01:32N 48°31' W 122°35'0 0.0
2015-Apr-22 00:33N 48°31' W 122°35'0 0.0
2015-Apr-21 23:33N 48°31' W 122°35'0 0.0
2015-Apr-21 22:33N 48°31' W 122°35'0 0.0
2015-Apr-21 21:33N 48°31' W 122°35'0 0.0
2015-Apr-21 20:33N 48°31' W 122°35'0 0.0
2015-Apr-21 19:33N 48°31' W 122°35'0 0.0
2015-Apr-21 18:33N 48°31' W 122°35'0 0.0
2015-Apr-21 17:33N 48°31' W 122°35'0 0.0
2015-Apr-21 16:33N 48°31' W 122°35'0 0.0
2015-Apr-21 15:33N 48°31' W 122°35'0 0.0
2015-Apr-21 14:33N 48°31' W 122°35'0 0.0
2015-Apr-21 13:33N 48°31' W 122°35'0 0.0
2015-Apr-21 12:33N 48°31' W 122°35'0 0.0
2015-Apr-21 11:33N 48°31' W 122°35'0 0.0
2015-Apr-21 10:33N 48°31' W 122°35'0 0.0
2015-Apr-21 09:33N 48°31' W 122°35'0 0.0
2015-Apr-21 08:33N 48°31' W 122°35'0 0.0
2015-Apr-21 07:33N 48°31' W 122°35'0 0.0
2015-Apr-21 06:33N 48°31' W 122°35'0 0.0
2015-Apr-21 05:33N 48°31' W 122°35'0 0.0
2015-Apr-21 04:33N 48°31' W 122°35'0 0.0
2015-Apr-21 03:33N 48°31' W 122°35'0 0.0
2015-Apr-21 02:33N 48°31' W 122°35'0 0.0
2015-Apr-21 01:33N 48°31' W 122°35'0 0.0
2015-Apr-21 00:33N 48°31' W 122°35'0 0.0
2015-Apr-20 23:33N 48°31' W 122°35'0 0.0
2015-Apr-20 22:33N 48°31' W 122°35'0 0.0
2015-Apr-20 21:33N 48°31' W 122°35'0 0.0
2015-Apr-20 20:33N 48°31' W 122°35'0 0.0
2015-Apr-20 19:33N 48°31' W 122°35'0 0.0
2015-Apr-20 18:33N 48°31' W 122°35'0 0.0
2015-Apr-20 17:33N 48°31' W 122°35'0 0.0
2015-Apr-20 16:33N 48°31' W 122°35'0 0.0
2015-Apr-20 15:33N 48°31' W 122°35'0 0.0
2015-Apr-20 14:33N 48°31' W 122°35'0 0.0
2015-Apr-20 13:33N 48°31' W 122°35'0 0.0
2015-Apr-20 12:33N 48°31' W 122°35'0 0.0
2015-Apr-20 11:33N 48°31' W 122°35'0 0.0
2015-Apr-20 10:33N 48°31' W 122°35'0 0.0
2015-Apr-20 09:33N 48°31' W 122°35'0 0.0
2015-Apr-20 08:33N 48°31' W 122°35'0 0.0
2015-Apr-20 07:33N 48°31' W 122°35'0 0.0
2015-Apr-20 06:33N 48°31' W 122°35'2 1.7
2015-Apr-20 05:33N 48°31' W 122°37'8 7.9
2015-Apr-20 04:33N 48°26' W 122°46'1111.2
2015-Apr-20 03:31N 48°19' W 122°59'1111.7
2015-Apr-20 02:33N 48°14' W 123°14'1010.1
2015-Apr-20 01:33N 48°12' W 123°29'1212.1
2015-Apr-20 00:33N 48°13' W 123°47'1312.9
2015-Apr-19 23:33N 48°16' W 124°06'1313.2
2015-Apr-19 22:33N 48°22' W 124°24'1212.4
2015-Apr-19 21:33N 48°27' W 124°41'1211.6
2015-Apr-19 20:33N 48°28' W 124°58'1211.7
2015-Apr-19 19:33N 48°19' W 125°09'1211.7
2015-Apr-19 18:33N 48°09' W 125°18'1211.7
2015-Apr-19 17:31N 47°58' W 125°27'1011.0
2015-Apr-19 16:33N 47°49' W 125°34'1111.1
2015-Apr-19 15:33N 47°39' W 125°41'1111.1
2015-Apr-19 14:33N 47°28' W 125°42'1111.0
2015-Apr-19 13:33N 47°17' W 125°42'1111.0
2015-Apr-19 12:34N 47°06' W 125°42'1110.9
2015-Apr-19 11:33N 46°55' W 125°42'1111.0
2015-Apr-19 10:33N 46°44' W 125°43'1110.9
2015-Apr-19 09:33N 46°33' W 125°43'1110.9
2015-Apr-19 08:34N 46°22' W 125°45'1110.8
2015-Apr-19 07:34N 46°11' W 125°45'1110.6
2015-Apr-19 06:33N 46°01' W 125°43'1110.9
2015-Apr-19 05:33N 45°50' W 125°42'1111.1
2015-Apr-19 04:33N 45°39' W 125°42'1110.9
2015-Apr-19 03:33N 45°28' W 125°44'1110.9
2015-Apr-19 02:33N 45°17' W 125°45'1110.8
2015-Apr-19 01:33N 45°06' W 125°46'1010.5
2015-Apr-19 00:33N 44°56' W 125°47'1010.0
2015-Apr-18 23:31N 44°46' W 125°47'1010.0
2015-Apr-18 22:34N 44°36' W 125°47'1010.0
2015-Apr-18 21:33N 44°26' W 125°47'4510.2
2015-Apr-18 17:09N 43°41' W 125°49'1910.2
2015-Apr-18 15:17N 43°22' W 125°50'289 9.1
2015-Apr-17 07:31N 38°37' W 124°46'9 9.6
2015-Apr-17 06:32N 38°29' W 124°41'1010.1
2015-Apr-17 05:33N 38°19' W 124°36'1010.0
2015-Apr-17 04:33N 38°13' W 124°27'10 9.8
2015-Apr-17 03:33N 38°06' W 124°18'1010.5
2015-Apr-17 02:33N 37°59' W 124°08'1110.6
2015-Apr-17 01:33N 37°52' W 123°57'1010.4
2015-Apr-17 00:33N 37°46' W 123°47'1010.5
2015-Apr-16 23:33N 37°39' W 123°38'10 9.9
2015-Apr-16 22:33N 37°33' W 123°27'1111.2
2015-Apr-16 21:33N 37°34' W 123°13'1110.7
2015-Apr-16 20:33N 37°36' W 123°00'1111.5
2015-Apr-16 19:33N 37°42' W 122°48'1110.6
2015-Apr-16 18:33N 37°47' W 122°36'1010.2
2015-Apr-16 17:33N 37°52' W 122°25'9 9.1
2015-Apr-16 16:33N 38°01' W 122°24'  
Track history (hours):
 
Tides and Currents Weather Stations Pressure Air Temp Water Temp Dewpoint Dewpoint Depression Visibility Wind Speed Wind Dir Waves Ship Positions

Vision

Owner: INTREPID SHIP MANAGEMENT, JACKSONVILLE, FL. More information available from US FCC via Universal Licensing System and Coast Guard Vessel Documentation Center.

Last reported at 2015-Apr-26 13:20 UTC. Time now 2015-Apr-28 14:25 UTC.
Position N 48°06' W 125°22'.

Length 199 m; draft 7.2 m.

Type: Towing. MMSI: 366904000.

Date/timePositionNaut miles runAvg speedWind from/ knotsBaromVisibWave heightAir tempDewpointWater temp
2015-Apr-26 13:20N 48°06' W 125°22'911.8
2015-Apr-26 12:33N 48°14' W 125°15'1212.0
2015-Apr-26 11:33N 48°25' W 125°07'1110.8
2015-Apr-26 10:33N 48°31' W 124°53'1312.7
2015-Apr-26 09:33N 48°28' W 124°34'1312.8
2015-Apr-26 08:33N 48°23' W 124°16'1312.5
2015-Apr-26 07:33N 48°18' W 123°59'1212.1
2015-Apr-26 06:33N 48°16' W 123°41'10 9.7
2015-Apr-26 05:33N 48°13' W 123°27'5 5.3
2015-Apr-26 04:33N 48°08' W 123°25'0 0.1
2015-Apr-26 03:32N 48°08' W 123°25'0 0.1
2015-Apr-26 02:33N 48°08' W 123°25'0 0.1
2015-Apr-26 01:33N 48°08' W 123°25'0 0.0
2015-Apr-26 00:33N 48°08' W 123°25'0 0.0
2015-Apr-25 23:33N 48°08' W 123°25'0 0.0
2015-Apr-25 22:33N 48°08' W 123°25'0 0.0
2015-Apr-25 21:33N 48°08' W 123°25'0 0.1
2015-Apr-25 20:33N 48°08' W 123°25'0 0.2
2015-Apr-25 19:33N 48°08' W 123°25'3 2.7
2015-Apr-25 18:33N 48°09' W 123°21'1312.6
2015-Apr-25 17:33N 48°17' W 123°06'1211.8
2015-Apr-25 16:33N 48°23' W 122°52'1111.4
2015-Apr-25 15:33N 48°31' W 122°39'3 3.1
2015-Apr-25 14:33N 48°31' W 122°35'0 0.0
2015-Apr-25 13:33N 48°31' W 122°35'0 0.0
2015-Apr-25 12:33N 48°31' W 122°35'0 0.0
2015-Apr-25 11:33N 48°31' W 122°35'0 0.0
2015-Apr-25 10:33N 48°31' W 122°35'0 0.0
2015-Apr-25 09:33N 48°31' W 122°35'0 0.0
2015-Apr-25 08:33N 48°31' W 122°35'0 0.0
2015-Apr-25 07:33N 48°31' W 122°35'0 0.0
2015-Apr-25 06:33N 48°31' W 122°35'0 0.0
2015-Apr-25 05:33N 48°31' W 122°35'0 0.0
2015-Apr-25 04:33N 48°31' W 122°35'0 0.0
2015-Apr-25 03:33N 48°31' W 122°35'0 0.0
2015-Apr-25 02:33N 48°31' W 122°35'0 0.0
2015-Apr-25 01:33N 48°31' W 122°35'0 0.0
2015-Apr-25 00:33N 48°31' W 122°35'0 0.0
2015-Apr-24 23:33N 48°31' W 122°35'0 0.0
2015-Apr-24 22:33N 48°31' W 122°35'0 0.0
2015-Apr-24 21:30N 48°31' W 122°35'0 0.0
2015-Apr-24 20:33N 48°31' W 122°35'0 0.0
2015-Apr-24 19:33N 48°31' W 122°35'0 0.0
2015-Apr-24 18:33N 48°31' W 122°35'0 0.0
2015-Apr-24 17:33N 48°31' W 122°35'0 0.0
2015-Apr-24 16:33N 48°31' W 122°35'0 0.0
2015-Apr-24 15:33N 48°31' W 122°35'0 0.0
2015-Apr-24 14:33N 48°31' W 122°35'0 0.0
2015-Apr-24 13:33N 48°31' W 122°35'0 0.0
2015-Apr-24 12:33N 48°31' W 122°35'0 0.0
2015-Apr-24 11:33N 48°31' W 122°35'0 0.0
2015-Apr-24 10:30N 48°31' W 122°35'0 0.0
2015-Apr-24 09:30N 48°31' W 122°35'0 0.0
2015-Apr-24 08:21N 48°31' W 122°35'0 0.0
2015-Apr-24 07:33N 48°31' W 122°35'0 0.0
2015-Apr-24 06:33N 48°31' W 122°35'0 0.0
2015-Apr-24 05:33N 48°31' W 122°35'0 0.0
2015-Apr-24 04:33N 48°31' W 122°35'0 0.0
2015-Apr-24 03:33N 48°31' W 122°35'0 0.0
2015-Apr-24 02:33N 48°31' W 122°35'0 0.0
2015-Apr-24 01:33N 48°31' W 122°35'0 0.0
2015-Apr-24 00:33N 48°31' W 122°35'0 0.0
2015-Apr-23 23:33N 48°31' W 122°35'0 0.0
2015-Apr-23 22:33N 48°31' W 122°35'0 0.0
2015-Apr-23 21:33N 48°31' W 122°35'0 0.0
2015-Apr-23 20:33N 48°31' W 122°35'0 0.0
2015-Apr-23 19:33N 48°31' W 122°35'0 0.0
2015-Apr-23 18:33N 48°31' W 122°35'0 0.0
2015-Apr-23 17:33N 48°31' W 122°35'0 0.0
2015-Apr-23 16:33N 48°31' W 122°35'0 0.0
2015-Apr-23 15:33N 48°31' W 122°35'0 0.0
2015-Apr-23 14:33N 48°31' W 122°35'0 0.0
2015-Apr-23 13:33N 48°31' W 122°35'0 0.0
2015-Apr-23 12:33N 48°31' W 122°35'0 0.0
2015-Apr-23 11:33N 48°31' W 122°35'1 0.7
2015-Apr-23 10:33N 48°31' W 122°35'0 0.0
2015-Apr-23 09:33N 48°31' W 122°35'0 0.0
2015-Apr-23 08:33N 48°31' W 122°35'0 0.0
2015-Apr-23 07:33N 48°31' W 122°35'0 0.1
2015-Apr-23 06:33N 48°31' W 122°35'0 0.1
2015-Apr-23 05:33N 48°31' W 122°35'0 0.1
2015-Apr-23 04:33N 48°31' W 122°35'0 0.0
2015-Apr-23 03:33N 48°31' W 122°35'0 0.0
2015-Apr-23 02:33N 48°31' W 122°35'0 0.1
2015-Apr-23 01:33N 48°31' W 122°35'0 0.1
2015-Apr-23 00:33N 48°31' W 122°35'0 0.1
2015-Apr-22 23:33N 48°31' W 122°35'0 0.0
2015-Apr-22 22:33N 48°31' W 122°35'0 0.2
2015-Apr-22 21:33N 48°31' W 122°35'0 0.0
2015-Apr-22 20:33N 48°31' W 122°35'1 0.7
2015-Apr-22 19:33N 48°31' W 122°35'0 0.0
2015-Apr-22 18:33N 48°31' W 122°35'0 0.0
2015-Apr-22 17:33N 48°31' W 122°35'0 0.0
2015-Apr-22 16:33N 48°31' W 122°35'0 0.0
2015-Apr-22 15:33N 48°31' W 122°35'0 0.0
2015-Apr-22 14:33N 48°31' W 122°35'0 0.0
2015-Apr-22 13:33N 48°31' W 122°35'0 0.0
2015-Apr-22 12:33N 48°31' W 122°35'0 0.0
2015-Apr-22 11:33N 48°31' W 122°35'0 0.0
2015-Apr-22 10:33N 48°31' W 122°35'0 0.0
2015-Apr-22 09:33N 48°31' W 122°35'0 0.0
2015-Apr-22 08:34N 48°31' W 122°35'0 0.0
2015-Apr-22 07:33N 48°31' W 122°35'0 0.0
2015-Apr-22 06:33N 48°31' W 122°35'0 0.0
2015-Apr-22 05:33N 48°31' W 122°35'0 0.0
2015-Apr-22 04:33N 48°31' W 122°35'0 0.0
2015-Apr-22 03:33N 48°31' W 122°35'0 0.0
2015-Apr-22 02:32N 48°31' W 122°35'0 0.0
2015-Apr-22 01:32N 48°31' W 122°35'0 0.0
2015-Apr-22 00:33N 48°31' W 122°35'0 0.0
2015-Apr-21 23:33N 48°31' W 122°35'0 0.0
2015-Apr-21 22:33N 48°31' W 122°35'0 0.0
2015-Apr-21 21:33N 48°31' W 122°35'0 0.0
2015-Apr-21 20:33N 48°31' W 122°35'0 0.0
2015-Apr-21 19:33N 48°31' W 122°35'0 0.0
2015-Apr-21 18:33N 48°31' W 122°35'0 0.0
2015-Apr-21 17:33N 48°31' W 122°35'0 0.0
2015-Apr-21 16:33N 48°31' W 122°35'0 0.0
2015-Apr-21 15:33N 48°31' W 122°35'0 0.0
2015-Apr-21 14:33N 48°31' W 122°35'0 0.0
2015-Apr-21 13:33N 48°31' W 122°35'0 0.0
2015-Apr-21 12:33N 48°31' W 122°35'0 0.0
2015-Apr-21 11:33N 48°31' W 122°35'0 0.0
2015-Apr-21 10:33N 48°31' W 122°35'0 0.0
2015-Apr-21 09:33N 48°31' W 122°35'0 0.0
2015-Apr-21 08:33N 48°31' W 122°35'0 0.0
2015-Apr-21 07:33N 48°31' W 122°35'0 0.0
2015-Apr-21 06:33N 48°31' W 122°35'0 0.0
2015-Apr-21 05:33N 48°31' W 122°35'0 0.0
2015-Apr-21 04:33N 48°31' W 122°35'0 0.0
2015-Apr-21 03:33N 48°31' W 122°35'0 0.0
2015-Apr-21 02:33N 48°31' W 122°35'0 0.0
2015-Apr-21 01:33N 48°31' W 122°35'0 0.0
2015-Apr-21 00:33N 48°31' W 122°35'0 0.0
2015-Apr-20 23:33N 48°31' W 122°35'0 0.0
2015-Apr-20 22:33N 48°31' W 122°35'0 0.0
2015-Apr-20 21:33N 48°31' W 122°35'0 0.0
2015-Apr-20 20:33N 48°31' W 122°35'0 0.0
2015-Apr-20 19:33N 48°31' W 122°35'0 0.0
2015-Apr-20 18:33N 48°31' W 122°35'0 0.0
2015-Apr-20 17:33N 48°31' W 122°35'0 0.0
2015-Apr-20 16:33N 48°31' W 122°35'0 0.0
2015-Apr-20 15:33N 48°31' W 122°35'0 0.0
2015-Apr-20 14:33N 48°31' W 122°35'0 0.0
2015-Apr-20 13:33N 48°31' W 122°35'0 0.0
2015-Apr-20 12:33N 48°31' W 122°35'0 0.0
2015-Apr-20 11:33N 48°31' W 122°35'0 0.0
2015-Apr-20 10:33N 48°31' W 122°35'0 0.0
2015-Apr-20 09:33N 48°31' W 122°35'0 0.0
2015-Apr-20 08:33N 48°31' W 122°35'0 0.0
2015-Apr-20 07:33N 48°31' W 122°35'0 0.0
2015-Apr-20 06:33N 48°31' W 122°35'2 1.7
2015-Apr-20 05:33N 48°31' W 122°37'8 7.9
2015-Apr-20 04:33N 48°26' W 122°46'1111.2
2015-Apr-20 03:31N 48°19' W 122°59'1111.7
2015-Apr-20 02:33N 48°14' W 123°14'1010.1
2015-Apr-20 01:33N 48°12' W 123°29'1212.1
2015-Apr-20 00:33N 48°13' W 123°47'1312.9
2015-Apr-19 23:33N 48°16' W 124°06'1313.2
2015-Apr-19 22:33N 48°22' W 124°24'1212.4
2015-Apr-19 21:33N 48°27' W 124°41'1211.6
2015-Apr-19 20:33N 48°28' W 124°58'1211.7
2015-Apr-19 19:33N 48°19' W 125°09'1211.7
2015-Apr-19 18:33N 48°09' W 125°18'1211.7
2015-Apr-19 17:31N 47°58' W 125°27'1011.0
2015-Apr-19 16:33N 47°49' W 125°34'1111.1
2015-Apr-19 15:33N 47°39' W 125°41'1111.1
2015-Apr-19 14:33N 47°28' W 125°42'1111.0
2015-Apr-19 13:33N 47°17' W 125°42'1111.0
2015-Apr-19 12:34N 47°06' W 125°42'1110.9
2015-Apr-19 11:33N 46°55' W 125°42'1111.0
2015-Apr-19 10:33N 46°44' W 125°43'1110.9
2015-Apr-19 09:33N 46°33' W 125°43'1110.9
2015-Apr-19 08:34N 46°22' W 125°45'1110.8
2015-Apr-19 07:34N 46°11' W 125°45'1110.6
2015-Apr-19 06:33N 46°01' W 125°43'1110.9
2015-Apr-19 05:33N 45°50' W 125°42'1111.1
2015-Apr-19 04:33N 45°39' W 125°42'1110.9
2015-Apr-19 03:33N 45°28' W 125°44'1110.9
2015-Apr-19 02:33N 45°17' W 125°45'1110.8
2015-Apr-19 01:33N 45°06' W 125°46'1010.5
2015-Apr-19 00:33N 44°56' W 125°47'1010.0
2015-Apr-18 23:31N 44°46' W 125°47'1010.0
2015-Apr-18 22:34N 44°36' W 125°47'1010.0
2015-Apr-18 21:33N 44°26' W 125°47'4510.2
2015-Apr-18 17:09N 43°41' W 125°49'1910.2
2015-Apr-18 15:17N 43°22' W 125°50'289 9.1
2015-Apr-17 07:31N 38°37' W 124°46'9 9.6
2015-Apr-17 06:32N 38°29' W 124°41'1010.1
2015-Apr-17 05:33N 38°19' W 124°36'1010.0
2015-Apr-17 04:33N 38°13' W 124°27'10 9.8
2015-Apr-17 03:33N 38°06' W 124°18'1010.5
2015-Apr-17 02:33N 37°59' W 124°08'1110.6
2015-Apr-17 01:33N 37°52' W 123°57'1010.4
2015-Apr-17 00:33N 37°46' W 123°47'1010.5
2015-Apr-16 23:33N 37°39' W 123°38'10 9.9
2015-Apr-16 22:33N 37°33' W 123°27'1111.2
2015-Apr-16 21:33N 37°34' W 123°13'1110.7
2015-Apr-16 20:33N 37°36' W 123°00'1111.5
2015-Apr-16 19:33N 37°42' W 122°48'1110.6
2015-Apr-16 18:33N 37°47' W 122°36'1010.2
2015-Apr-16 17:33N 37°52' W 122°25'9 9.1
2015-Apr-16 16:33N 38°01' W 122°24'  

Dump ship's entire track history